sensor_id;sensor_type;location;lat;lon;timestamp;pressure;altitude;pressure_sealevel;temperature;humidity
48778;BME280;34578;0.000;0.000;2023-01-25T00:01:17;97974.56;;;16.93;51.80
48778;BME280;34578;0.000;0.000;2023-01-25T00:06:17;97963.63;;;16.94;51.86
48778;BME280;34578;0.000;0.000;2023-01-25T00:11:18;97955.22;;;16.97;51.87
48778;BME280;34578;0.000;0.000;2023-01-25T00:16:19;97959.50;;;16.98;51.73
48778;BME280;34578;0.000;0.000;2023-01-25T00:21:23;97958.56;;;16.96;51.91
48778;BME280;34578;0.000;0.000;2023-01-25T00:26:23;97947.56;;;16.94;52.10
48778;BME280;34578;0.000;0.000;2023-01-25T00:36:40;97950.91;;;16.93;52.33
48778;BME280;34578;0.000;0.000;2023-01-25T00:41:41;97940.88;;;16.96;51.75
48778;BME280;34578;0.000;0.000;2023-01-25T00:46:42;97941.69;;;16.95;52.00
48778;BME280;34578;0.000;0.000;2023-01-25T00:51:42;97940.03;;;16.97;51.88
48778;BME280;34578;0.000;0.000;2023-01-25T00:56:43;97930.75;;;16.96;52.14
48778;BME280;34578;0.000;0.000;2023-01-25T01:01:44;97931.63;;;16.96;52.37
48778;BME280;34578;0.000;0.000;2023-01-25T01:06:44;97929.09;;;16.96;52.00
48778;BME280;34578;0.000;0.000;2023-01-25T01:11:45;97929.97;;;16.98;52.04
48778;BME280;34578;0.000;0.000;2023-01-25T01:16:45;97929.13;;;16.98;51.70
48778;BME280;34578;0.000;0.000;2023-01-25T01:21:46;97929.03;;;16.95;52.14
48778;BME280;34578;0.000;0.000;2023-01-25T01:26:46;97923.16;;;16.96;51.90
48778;BME280;34578;0.000;0.000;2023-01-25T01:31:49;97933.28;;;16.96;52.28
48778;BME280;34578;0.000;0.000;2023-01-25T01:36:55;97914.72;;;16.95;52.25
48778;BME280;34578;0.000;0.000;2023-01-25T01:41:56;97913.84;;;16.93;52.15
48778;BME280;34578;0.000;0.000;2023-01-25T01:46:57;97910.50;;;16.96;52.25
48778;BME280;34578;0.000;0.000;2023-01-25T01:52:14;97909.56;;;16.92;52.32
48778;BME280;34578;0.000;0.000;2023-01-25T01:57:19;97904.56;;;16.94;51.95
48778;BME280;34578;0.000;0.000;2023-01-25T02:02:23;97902.09;;;16.97;51.92
48778;BME280;34578;0.000;0.000;2023-01-25T02:07:35;97888.50;;;16.92;51.85
48778;BME280;34578;0.000;0.000;2023-01-25T02:12:36;97899.50;;;16.94;52.42
48778;BME280;34578;0.000;0.000;2023-01-25T02:17:38;97889.44;;;16.97;51.88
48778;BME280;34578;0.000;0.000;2023-01-25T02:22:45;97893.72;;;16.98;52.16
48778;BME280;34578;0.000;0.000;2023-01-25T02:28:03;97881.00;;;16.96;52.25
48778;BME280;34578;0.000;0.000;2023-01-25T02:33:05;97889.53;;;17.00;51.92
48778;BME280;34578;0.000;0.000;2023-01-25T02:38:06;97883.59;;;16.98;51.73
48778;BME280;34578;0.000;0.000;2023-01-25T02:43:07;97888.56;;;16.95;52.17
48778;BME280;34578;0.000;0.000;2023-01-25T02:48:08;97900.38;;;16.94;52.46
48778;BME280;34578;0.000;0.000;2023-01-25T02:53:08;97900.31;;;16.93;52.07
48778;BME280;34578;0.000;0.000;2023-01-25T02:58:09;97883.50;;;16.95;51.98
48778;BME280;34578;0.000;0.000;2023-01-25T03:03:09;97876.78;;;16.95;51.73
48778;BME280;34578;0.000;0.000;2023-01-25T03:08:10;97885.31;;;16.99;51.58
48778;BME280;34578;0.000;0.000;2023-01-25T03:13:10;97884.44;;;16.98;52.06
48778;BME280;34578;0.000;0.000;2023-01-25T03:18:11;97875.19;;;16.99;52.12
48778;BME280;34578;0.000;0.000;2023-01-25T03:23:11;97866.78;;;17.00;51.72
48778;BME280;34578;0.000;0.000;2023-01-25T03:28:12;97865.91;;;16.99;51.83
48778;BME280;34578;0.000;0.000;2023-01-25T03:33:13;97859.22;;;17.01;52.18
48778;BME280;34578;0.000;0.000;2023-01-25T03:38:14;97852.41;;;16.99;52.02
48778;BME280;34578;0.000;0.000;2023-01-25T03:43:17;97843.19;;;17.01;51.97
48778;BME280;34578;0.000;0.000;2023-01-25T03:48:22;97846.53;;;17.00;51.99
48778;BME280;34578;0.000;0.000;2023-01-25T03:53:25;97837.19;;;16.97;52.38
48778;BME280;34578;0.000;0.000;2023-01-25T03:58:33;97838.84;;;16.97;52.51
48778;BME280;34578;0.000;0.000;2023-01-25T04:03:34;97829.56;;;16.96;52.31
48778;BME280;34578;0.000;0.000;2023-01-25T04:08:35;97834.69;;;16.99;52.14
48778;BME280;34578;0.000;0.000;2023-01-25T04:13:38;97839.75;;;16.99;51.67
48778;BME280;34578;0.000;0.000;2023-01-25T04:18:42;97844.81;;;16.99;52.15
48778;BME280;34578;0.000;0.000;2023-01-25T04:23:43;97839.75;;;16.99;51.94
48778;BME280;34578;0.000;0.000;2023-01-25T04:28:43;97840.59;;;16.99;52.28
48778;BME280;34578;0.000;0.000;2023-01-25T04:33:44;97829.59;;;16.97;52.45
48778;BME280;34578;0.000;0.000;2023-01-25T04:38:46;97829.66;;;17.00;52.24
48778;BME280;34578;0.000;0.000;2023-01-25T04:43:46;97824.50;;;16.96;52.14
48778;BME280;34578;0.000;0.000;2023-01-25T04:48:49;97827.13;;;16.99;51.95
48778;BME280;34578;0.000;0.000;2023-01-25T04:53:51;97827.94;;;16.99;52.14
48778;BME280;34578;0.000;0.000;2023-01-25T04:58:52;97828.88;;;17.03;51.89
48778;BME280;34578;0.000;0.000;2023-01-25T05:03:52;97834.75;;;17.02;52.26
48778;BME280;34578;0.000;0.000;2023-01-25T05:09:10;97827.19;;;17.02;51.91
48778;BME280;34578;0.000;0.000;2023-01-25T05:14:12;97805.38;;;17.07;52.04
48778;BME280;34578;0.000;0.000;2023-01-25T05:19:13;97814.69;;;17.08;51.64
48778;BME280;34578;0.000;0.000;2023-01-25T05:24:29;97805.50;;;17.13;51.40
48778;BME280;34578;0.000;0.000;2023-01-25T05:29:40;97807.19;;;17.12;51.39
48778;BME280;34578;0.000;0.000;2023-01-25T05:34:43;97811.38;;;17.12;51.13
48778;BME280;34578;0.000;0.000;2023-01-25T05:39:44;97808.84;;;17.12;50.01
48778;BME280;34578;0.000;0.000;2023-01-25T05:44:45;97810.50;;;17.10;50.19
48778;BME280;34578;0.000;0.000;2023-01-25T05:49:45;97799.56;;;17.11;50.49
48778;BME280;34578;0.000;0.000;2023-01-25T05:54:54;97800.31;;;17.07;50.75
48778;BME280;34578;0.000;0.000;2023-01-25T05:59:54;97805.22;;;17.01;51.18
48778;BME280;34578;0.000;0.000;2023-01-25T06:04:55;97797.63;;;17.01;50.06
48778;BME280;34578;0.000;0.000;2023-01-25T06:09:56;97805.75;;;16.88;48.45
48778;BME280;34578;0.000;0.000;2023-01-25T06:14:56;97788.13;;;16.91;48.33
48778;BME280;34578;0.000;0.000;2023-01-25T06:19:57;97800.13;;;16.98;49.26
48778;BME280;34578;0.000;0.000;2023-01-25T06:25:06;97805.91;;;16.94;49.89
48778;BME280;34578;0.000;0.000;2023-01-25T06:30:07;97804.25;;;16.94;50.10
48778;BME280;34578;0.000;0.000;2023-01-25T06:35:08;97804.97;;;16.89;48.67
48778;BME280;34578;0.000;0.000;2023-01-25T06:40:09;97800.00;;;16.93;49.45
48778;BME280;34578;0.000;0.000;2023-01-25T06:45:10;97800.03;;;16.95;49.67
48778;BME280;34578;0.000;0.000;2023-01-25T06:50:11;97799.13;;;16.93;49.72
48778;BME280;34578;0.000;0.000;2023-01-25T06:55:11;97794.91;;;16.92;49.23
48778;BME280;34578;0.000;0.000;2023-01-25T07:00:14;97781.38;;;16.90;49.60
48778;BME280;34578;0.000;0.000;2023-01-25T07:05:15;97784.78;;;16.92;49.40
48778;BME280;34578;0.000;0.000;2023-01-25T07:10:16;97784.72;;;16.89;49.71
48778;BME280;34578;0.000;0.000;2023-01-25T07:15:16;97792.22;;;16.86;49.78
48778;BME280;34578;0.000;0.000;2023-01-25T07:20:16;97793.88;;;16.84;49.73
48778;BME280;34578;0.000;0.000;2023-01-25T07:25:17;97789.69;;;16.86;49.69
48778;BME280;34578;0.000;0.000;2023-01-25T07:30:17;97786.22;;;16.81;49.65
48778;BME280;34578;0.000;0.000;2023-01-25T07:35:20;97779.31;;;16.75;49.34
48778;BME280;34578;0.000;0.000;2023-01-25T07:40:21;97793.75;;;16.79;49.54
48778;BME280;34578;0.000;0.000;2023-01-25T07:45:23;97792.88;;;16.79;49.64
48778;BME280;34578;0.000;0.000;2023-01-25T07:50:29;97792.88;;;16.79;49.60
48778;BME280;34578;0.000;0.000;2023-01-25T07:55:29;97791.19;;;16.77;49.36
48778;BME280;34578;0.000;0.000;2023-01-25T08:00:30;97797.06;;;16.77;49.70
48778;BME280;34578;0.000;0.000;2023-01-25T08:05:30;97790.34;;;16.77;49.04
48778;BME280;34578;0.000;0.000;2023-01-25T08:10:31;97783.59;;;16.78;49.11
48778;BME280;34578;0.000;0.000;2023-01-25T08:15:31;97769.25;;;16.77;49.12
48778;BME280;34578;0.000;0.000;2023-01-25T08:20:32;97760.78;;;16.75;49.54
48778;BME280;34578;0.000;0.000;2023-01-25T08:25:32;97764.13;;;16.74;49.43
48778;BME280;34578;0.000;0.000;2023-01-25T08:30:33;97771.78;;;16.77;49.21
48778;BME280;34578;0.000;0.000;2023-01-25T08:35:33;97767.59;;;16.77;49.37
48778;BME280;34578;0.000;0.000;2023-01-25T08:40:35;97765.00;;;16.76;49.22
48778;BME280;34578;0.000;0.000;2023-01-25T08:45:36;97747.09;;;16.67;49.42
48778;BME280;34578;0.000;0.000;2023-01-25T08:50:36;97753.19;;;16.75;49.00
48778;BME280;34578;0.000;0.000;2023-01-25T08:55:36;97751.50;;;16.74;48.92
48778;BME280;34578;0.000;0.000;2023-01-25T09:00:38;97750.63;;;16.73;49.08
48778;BME280;34578;0.000;0.000;2023-01-25T09:05:39;97762.38;;;16.72;49.06
48778;BME280;34578;0.000;0.000;2023-01-25T09:10:40;97750.56;;;16.71;48.95
48778;BME280;34578;0.000;0.000;2023-01-25T09:15:40;97755.66;;;16.72;48.81
48778;BME280;34578;0.000;0.000;2023-01-25T09:20:40;97753.94;;;16.71;48.84
48778;BME280;34578;0.000;0.000;2023-01-25T09:25:41;97745.50;;;16.71;48.92
48778;BME280;34578;0.000;0.000;2023-01-25T09:30:42;97752.22;;;16.69;49.19
48778;BME280;34578;0.000;0.000;2023-01-25T09:35:47;97741.22;;;16.68;48.96
48778;BME280;34578;0.000;0.000;2023-01-25T09:46:21;97751.41;;;16.71;49.10
48778;BME280;34578;0.000;0.000;2023-01-25T09:51:32;97751.34;;;16.68;49.14
48778;BME280;34578;0.000;0.000;2023-01-25T09:56:38;97750.47;;;16.67;48.91
48778;BME280;34578;0.000;0.000;2023-01-25T10:07:10;97751.34;;;16.68;48.98
48778;BME280;34578;0.000;0.000;2023-01-25T10:12:19;97749.59;;;16.66;48.81
48778;BME280;34578;0.000;0.000;2023-01-25T10:17:34;97746.22;;;16.65;48.72
48778;BME280;34578;0.000;0.000;2023-01-25T10:22:45;97738.63;;;16.65;48.90
48778;BME280;34578;0.000;0.000;2023-01-25T10:28:16;97736.09;;;16.65;49.05
48778;BME280;34578;0.000;0.000;2023-01-25T10:33:23;97724.28;;;16.64;48.57
48778;BME280;34578;0.000;0.000;2023-01-25T10:38:28;97725.19;;;16.67;48.54
48778;BME280;34578;0.000;0.000;2023-01-25T10:43:29;97715.91;;;16.67;48.57
48778;BME280;34578;0.000;0.000;2023-01-25T10:48:34;97705.75;;;16.65;48.91
48778;BME280;34578;0.000;0.000;2023-01-25T10:53:37;97701.53;;;16.66;48.42
48778;BME280;34578;0.000;0.000;2023-01-25T10:58:40;97688.09;;;16.67;48.95
48778;BME280;34578;0.000;0.000;2023-01-25T11:03:42;97700.00;;;16.71;48.69
48778;BME280;34578;0.000;0.000;2023-01-25T11:08:45;97688.91;;;16.66;48.73
48778;BME280;34578;0.000;0.000;2023-01-25T11:13:46;97687.97;;;16.62;48.72
48778;BME280;34578;0.000;0.000;2023-01-25T11:18:52;97682.19;;;16.66;47.34
48778;BME280;34578;0.000;0.000;2023-01-25T11:34:16;97652.00;;;16.72;49.92
48778;BME280;34578;0.000;0.000;2023-01-25T11:39:23;97652.88;;;16.75;49.31
48778;BME280;34578;0.000;0.000;2023-01-25T11:50:05;97647.03;;;16.77;49.60
48778;BME280;34578;0.000;0.000;2023-01-25T12:05:36;97615.28;;;16.90;49.11
48778;BME280;34578;0.000;0.000;2023-01-25T12:27:11;97565.63;;;16.95;47.52
48778;BME280;34578;0.000;0.000;2023-01-25T12:32:27;97553.66;;;16.85;47.54
48778;BME280;34578;0.000;0.000;2023-01-25T12:37:35;97542.66;;;16.85;48.67
48778;BME280;34578;0.000;0.000;2023-01-25T12:42:59;97526.53;;;16.80;48.68
48778;BME280;34578;0.000;0.000;2023-01-25T12:48:09;97517.38;;;16.85;49.55
48778;BME280;34578;0.000;0.000;2023-01-25T12:53:30;97513.22;;;16.88;49.05
48778;BME280;34578;0.000;0.000;2023-01-25T13:03:50;97498.97;;;16.92;49.32
48778;BME280;34578;0.000;0.000;2023-01-25T13:24:30;97487.94;;;16.88;50.64
48778;BME280;34578;0.000;0.000;2023-01-25T13:45:17;97473.50;;;16.84;50.96
48778;BME280;34578;0.000;0.000;2023-01-25T13:50:23;97469.28;;;16.82;50.53
48778;BME280;34578;0.000;0.000;2023-01-25T13:55:25;97463.31;;;16.80;51.16
48778;BME280;34578;0.000;0.000;2023-01-25T14:00:26;97461.63;;;16.79;51.52
48778;BME280;34578;0.000;0.000;2023-01-25T14:05:27;97464.19;;;16.80;51.35
48778;BME280;34578;0.000;0.000;2023-01-25T14:10:27;97457.47;;;16.81;51.39
48778;BME280;34578;0.000;0.000;2023-01-25T14:15:30;97450.81;;;16.87;50.44
48778;BME280;34578;0.000;0.000;2023-01-25T14:20:30;97453.47;;;16.95;49.97
48778;BME280;34578;0.000;0.000;2023-01-25T14:25:32;97439.97;;;16.93;51.50
48778;BME280;34578;0.000;0.000;2023-01-25T14:30:33;97436.69;;;16.98;49.66
48778;BME280;34578;0.000;0.000;2023-01-25T14:35:36;97443.47;;;17.01;49.86
48778;BME280;34578;0.000;0.000;2023-01-25T14:40:36;97435.00;;;16.99;50.45
48778;BME280;34578;0.000;0.000;2023-01-25T14:45:37;97434.13;;;16.97;48.84
48778;BME280;34578;0.000;0.000;2023-01-25T14:50:38;97429.88;;;16.96;50.02
48778;BME280;34578;0.000;0.000;2023-01-25T14:55:43;97431.59;;;16.97;49.73
48778;BME280;34578;0.000;0.000;2023-01-25T15:01:00;97434.94;;;16.96;49.90
48778;BME280;34578;0.000;0.000;2023-01-25T15:06:03;97434.09;;;16.95;49.92
48778;BME280;34578;0.000;0.000;2023-01-25T15:11:04;97435.78;;;16.93;50.21
48778;BME280;34578;0.000;0.000;2023-01-25T15:16:33;97433.19;;;16.92;49.53
48778;BME280;34578;0.000;0.000;2023-01-25T15:21:33;97426.44;;;16.91;50.34
48778;BME280;34578;0.000;0.000;2023-01-25T15:26:34;97417.16;;;16.90;50.30
48778;BME280;34578;0.000;0.000;2023-01-25T15:31:36;97417.91;;;16.86;50.90
48778;BME280;34578;0.000;0.000;2023-01-25T15:36:37;97413.72;;;16.86;50.67
48778;BME280;34578;0.000;0.000;2023-01-25T15:41:37;97412.97;;;16.92;49.53
48778;BME280;34578;0.000;0.000;2023-01-25T15:46:40;97411.28;;;16.91;49.86
48778;BME280;34578;0.000;0.000;2023-01-25T15:51:41;97407.00;;;16.88;49.58
48778;BME280;34578;0.000;0.000;2023-01-25T15:56:49;97397.75;;;16.89;50.07
48778;BME280;34578;0.000;0.000;2023-01-25T16:01:50;97407.03;;;16.90;49.35
48778;BME280;34578;0.000;0.000;2023-01-25T16:06:52;97398.63;;;16.91;49.94
48778;BME280;34578;0.000;0.000;2023-01-25T16:11:54;97382.63;;;16.92;49.46
48778;BME280;34578;0.000;0.000;2023-01-25T16:16:57;97372.47;;;16.89;50.13
48778;BME280;34578;0.000;0.000;2023-01-25T16:22:00;97371.63;;;16.91;49.26
48778;BME280;34578;0.000;0.000;2023-01-25T16:27:01;97371.63;;;16.91;48.31
48778;BME280;34578;0.000;0.000;2023-01-25T16:32:01;97368.28;;;16.92;49.75
48778;BME280;34578;0.000;0.000;2023-01-25T16:37:01;97365.88;;;17.00;49.09
48778;BME280;34578;0.000;0.000;2023-01-25T16:42:02;97364.19;;;16.99;50.35
48778;BME280;34578;0.000;0.000;2023-01-25T16:47:03;97364.22;;;17.02;50.74
48778;BME280;34578;0.000;0.000;2023-01-25T16:52:04;97354.06;;;17.00;50.55
48778;BME280;34578;0.000;0.000;2023-01-25T16:57:06;97322.75;;;16.92;47.84
48778;BME280;34578;0.000;0.000;2023-01-25T17:02:10;97341.38;;;16.97;50.71
48778;BME280;34578;0.000;0.000;2023-01-25T17:07:11;97334.66;;;16.99;50.39
48778;BME280;34578;0.000;0.000;2023-01-25T17:12:12;97339.75;;;17.01;51.28
48778;BME280;34578;0.000;0.000;2023-01-25T17:17:13;97338.91;;;16.99;51.55
48778;BME280;34578;0.000;0.000;2023-01-25T17:22:13;97332.13;;;16.98;50.84
48778;BME280;34578;0.000;0.000;2023-01-25T17:27:13;97341.38;;;16.97;50.15
48778;BME280;34578;0.000;0.000;2023-01-25T17:32:15;97337.06;;;16.89;50.38
48778;BME280;34578;0.000;0.000;2023-01-25T17:37:15;97342.19;;;16.95;50.94
48778;BME280;34578;0.000;0.000;2023-01-25T17:42:15;97325.22;;;16.88;51.09
48778;BME280;34578;0.000;0.000;2023-01-25T17:47:16;97327.81;;;16.92;51.04
48778;BME280;34578;0.000;0.000;2023-01-25T17:52:16;97331.22;;;16.94;50.76
48778;BME280;34578;0.000;0.000;2023-01-25T17:57:16;97328.66;;;16.93;51.52
48778;BME280;34578;0.000;0.000;2023-01-25T18:02:22;97321.13;;;16.96;50.66
48778;BME280;34578;0.000;0.000;2023-01-25T18:07:23;97321.94;;;16.95;51.14
48778;BME280;34578;0.000;0.000;2023-01-25T18:12:24;97317.81;;;17.00;51.53
48778;BME280;34578;0.000;0.000;2023-01-25T18:17:24;97324.63;;;17.04;50.62
48778;BME280;34578;0.000;0.000;2023-01-25T18:22:25;97306.06;;;17.03;50.73
48778;BME280;34578;0.000;0.000;2023-01-25T18:27:26;97305.19;;;17.00;52.67
48778;BME280;34578;0.000;0.000;2023-01-25T18:32:28;97299.22;;;16.96;52.31
48778;BME280;34578;0.000;0.000;2023-01-25T18:37:29;97303.41;;;16.94;52.47
48778;BME280;34578;0.000;0.000;2023-01-25T18:42:34;97301.66;;;16.90;52.12
48778;BME280;34578;0.000;0.000;2023-01-25T18:47:37;97301.66;;;16.89;52.18
48778;BME280;34578;0.000;0.000;2023-01-25T18:52:38;97291.53;;;16.89;52.26
48778;BME280;34578;0.000;0.000;2023-01-25T18:57:38;97294.81;;;16.85;52.67
48778;BME280;34578;0.000;0.000;2023-01-25T19:02:38;97301.69;;;16.92;51.25
48778;BME280;34578;0.000;0.000;2023-01-25T19:07:39;97287.50;;;17.01;49.47
48778;BME280;34578;0.000;0.000;2023-01-25T19:12:39;97280.81;;;17.06;49.28
48778;BME280;34578;0.000;0.000;2023-01-25T19:17:42;97283.38;;;17.08;50.81
48778;BME280;34578;0.000;0.000;2023-01-25T19:22:42;97278.34;;;17.11;49.74
48778;BME280;34578;0.000;0.000;2023-01-25T19:27:45;97261.50;;;17.13;50.57
48778;BME280;34578;0.000;0.000;2023-01-25T19:32:45;97258.13;;;17.11;51.09
48778;BME280;34578;0.000;0.000;2023-01-25T19:37:45;97254.81;;;17.15;49.46
48778;BME280;34578;0.000;0.000;2023-01-25T19:42:46;97246.38;;;17.16;50.24
48778;BME280;34578;0.000;0.000;2023-01-25T19:47:46;97246.28;;;17.10;51.98
48778;BME280;34578;0.000;0.000;2023-01-25T19:52:47;97232.72;;;17.05;52.24
48778;BME280;34578;0.000;0.000;2023-01-25T19:57:47;97251.31;;;17.07;51.81
48778;BME280;34578;0.000;0.000;2023-01-25T20:02:47;97233.63;;;17.07;51.53
48778;BME280;34578;0.000;0.000;2023-01-25T20:07:48;97236.97;;;17.07;51.11
48778;BME280;34578;0.000;0.000;2023-01-25T20:12:48;97230.25;;;17.08;50.94
48778;BME280;34578;0.000;0.000;2023-01-25T20:17:48;97226.03;;;17.07;51.99
48778;BME280;34578;0.000;0.000;2023-01-25T20:22:49;97224.34;;;17.06;52.12
48778;BME280;34578;0.000;0.000;2023-01-25T20:27:51;97218.47;;;17.10;51.03
48778;BME280;34578;0.000;0.000;2023-01-25T20:32:51;97216.81;;;17.10;51.65
48778;BME280;34578;0.000;0.000;2023-01-25T20:37:52;97213.44;;;17.11;50.38
48778;BME280;34578;0.000;0.000;2023-01-25T20:42:52;97209.22;;;17.12;50.36
48778;BME280;34578;0.000;0.000;2023-01-25T20:47:52;97202.50;;;17.14;50.19
48778;BME280;34578;0.000;0.000;2023-01-25T20:52:53;97201.69;;;17.15;48.67
48778;BME280;34578;0.000;0.000;2023-01-25T20:57:53;97194.13;;;17.18;48.94
48778;BME280;34578;0.000;0.000;2023-01-25T21:02:53;97194.16;;;17.21;47.58
48778;BME280;34578;0.000;0.000;2023-01-25T21:07:54;97186.56;;;17.19;49.56
48778;BME280;34578;0.000;0.000;2023-01-25T21:12:54;97188.19;;;17.16;50.03
48778;BME280;34578;0.000;0.000;2023-01-25T21:17:54;97189.91;;;17.18;49.84
48778;BME280;34578;0.000;0.000;2023-01-25T21:22:55;97187.38;;;17.17;49.96
48778;BME280;34578;0.000;0.000;2023-01-25T21:27:55;97176.38;;;17.15;49.73
48778;BME280;34578;0.000;0.000;2023-01-25T21:32:58;97168.78;;;17.15;49.73
48778;BME280;34578;0.000;0.000;2023-01-25T21:37:58;97167.03;;;17.11;49.87
48778;BME280;34578;0.000;0.000;2023-01-25T21:42:58;97167.03;;;17.11;49.70
48778;BME280;34578;0.000;0.000;2023-01-25T21:47:59;97156.09;;;17.10;49.72
48778;BME280;34578;0.000;0.000;2023-01-25T21:52:59;97159.47;;;17.12;48.82
48778;BME280;34578;0.000;0.000;2023-01-25T21:58:00;97153.56;;;17.12;49.18
48778;BME280;34578;0.000;0.000;2023-01-25T22:03:01;97145.97;;;17.10;49.68
48778;BME280;34578;0.000;0.000;2023-01-25T22:08:01;97136.66;;;17.09;48.47
48778;BME280;34578;0.000;0.000;2023-01-25T22:13:01;97131.59;;;17.08;49.61
48778;BME280;34578;0.000;0.000;2023-01-25T22:18:02;97129.00;;;17.03;49.56
48778;BME280;34578;0.000;0.000;2023-01-25T22:23:02;97121.41;;;17.05;48.08
48778;BME280;34578;0.000;0.000;2023-01-25T22:28:03;97123.16;;;17.09;48.43
48778;BME280;34578;0.000;0.000;2023-01-25T22:33:05;97116.44;;;17.11;47.76
48778;BME280;34578;0.000;0.000;2023-01-25T22:38:05;97117.28;;;17.10;48.67
48778;BME280;34578;0.000;0.000;2023-01-25T22:43:06;97116.41;;;17.08;48.52
48778;BME280;34578;0.000;0.000;2023-01-25T22:48:06;97114.72;;;17.07;48.50
48778;BME280;34578;0.000;0.000;2023-01-25T22:53:06;97112.19;;;17.07;48.00
48778;BME280;34578;0.000;0.000;2023-01-25T22:58:08;97113.03;;;17.07;47.40
48778;BME280;34578;0.000;0.000;2023-01-25T23:03:09;97109.59;;;17.04;48.76
48778;BME280;34578;0.000;0.000;2023-01-25T23:08:10;97109.66;;;17.07;48.17
48778;BME280;34578;0.000;0.000;2023-01-25T23:13:10;97102.03;;;17.02;49.57
48778;BME280;34578;0.000;0.000;2023-01-25T23:18:10;97096.06;;;16.99;50.19
48778;BME280;34578;0.000;0.000;2023-01-25T23:23:50;97097.69;;;16.94;50.55
48778;BME280;34578;0.000;0.000;2023-01-25T23:28:52;97092.59;;;16.92;50.05
48778;BME280;34578;0.000;0.000;2023-01-25T23:33:54;97079.16;;;16.93;49.77
48778;BME280;34578;0.000;0.000;2023-01-25T23:38:55;97079.97;;;16.92;49.06
48778;BME280;34578;0.000;0.000;2023-01-25T23:43:56;97078.25;;;16.91;49.63
48778;BME280;34578;0.000;0.000;2023-01-25T23:48:57;97067.31;;;16.91;49.82
48778;BME280;34578;0.000;0.000;2023-01-25T23:53:57;97056.38;;;16.92;49.64
48778;BME280;34578;0.000;0.000;2023-01-25T23:58:58;97055.50;;;16.90;50.04
